Latest Weather Observations for Yunta

IDS60801

Issued at 1:31 pm CST Saturday 30 May 2015 (issued every 30 minutes, with the page automatically refreshed every 10 minutes)

About weather observations | Map of weather stations | Latest weather observations for SA | Other Formats
Station Details ID: 020062 Name: YUNTA AIRSTRIP Lat: -32.57 Lon: 139.56 Height: 300.0 m
Data from the previous 72 hours. | See also: Recent months at Yunta
Date/Time
CST
Temp
°C
App
Temp
°C
Dew
Point
Rel
Hum
%
Delta-T
°C
Wind Press
QNH
hPa
Press
MSL
hPa
Rain
since 9 am
mm
Dir
 
Spd
km/h
Gust
km/h
Spd
kts
Gust
kts
30/01:30pm 13.9 12.4 8.5 70 2.7 SW 6 7 3 4 1020.8 1020.8 0.0
30/01:00pm 13.5 11.9 8.1 70 2.7 S 6 7 3 4 1021.1 1021.1 0.0
30/12:30pm 13.2 11.1 8.3 72 2.5 S 9 11 5 6 1021.3 1021.3 0.0
30/12:00pm 13.1 11.5 8.6 74 2.3 S 7 11 4 6 1021.7 1021.7 0.0
30/11:30am 12.9 12.6 8.8 76 2.1 CALM 0 0 0 0 1022.6 1022.5 0.0
30/11:00am 12.6 11.1 8.5 76 2.1 SSW 6 7 3 4 1023.2 1023.1 0.0
30/10:30am 12.7 12.0 8.4 75 2.2 SSW 2 4 1 2 1023.4 1023.4 0.0
30/10:00am 12.2 11.7 7.9 75 2.1 CALM 0 2 0 1 1023.4 1023.4 0.0
30/09:30am 11.8 10.9 7.9 77 1.9 SSW 2 4 1 2 1023.8 1023.8 0.0
30/09:00am 11.4 11.0 8.4 82 1.5 CALM 0 0 0 0 1024.0 1024.0 0.0
30/08:30am 10.8 10.4 8.4 85 1.2 CALM 0 0 0 0 1023.6 1023.6 0.0
30/08:00am 10.4 10.1 8.7 89 0.8 CALM 0 0 0 0 1023.6 1023.6 0.0
30/07:30am 10.0 9.6 8.4 90 0.8 CALM 0 0 0 0 1023.5 1023.5 0.0
30/07:00am 9.9 9.5 8.2 89 0.8 CALM 0 0 0 0 1023.5 1023.5 0.0
30/06:30am 10.0 8.9 8.4 90 0.8 W 4 4 2 2 1023.5 1023.5 0.0
30/06:00am 9.4 8.5 7.7 89 0.8 SW 2 4 1 2 1023.0 1022.9 0.0
30/05:30am 9.6 9.1 7.9 89 0.8 CALM 0 0 0 0 1022.5 1022.4 0.0
30/05:00am 10.0 9.6 8.1 88 0.9 CALM 0 0 0 0 1022.6 1022.5 0.0
30/04:30am 10.2 9.8 8.3 88 0.9 CALM 0 0 0 0 1022.6 1022.5 0.0
30/04:00am 10.2 9.1 8.5 89 0.8 WSW 4 4 2 2 1022.7 1022.6 0.0
30/03:30am 9.7 8.5 8.0 89 0.8 WSW 4 4 2 2 1022.6 1022.5 0.0
30/03:00am 9.2 8.6 7.3 88 0.9 CALM 0 0 0 0 1022.5 1022.4 0.0
30/02:30am 9.5 8.9 7.6 88 0.9 CALM 0 0 0 0 1022.8 1022.7 0.0
30/02:00am 9.6 9.1 7.7 88 0.9 CALM 0 0 0 0 1023.1 1023.0 0.0
30/01:30am 9.5 8.9 7.6 88 0.9 CALM 0 0 0 0 1023.3 1023.2 0.0
30/01:00am 9.8 9.2 7.6 86 1.1 CALM 0 0 0 0 1022.6 1022.5 0.0
30/12:30am 10.4 9.9 8.0 85 1.2 CALM 0 0 0 0 1023.3 1023.2 0.0
30/12:00am 10.8 10.0 8.2 84 1.3 NW 2 4 1 2 1023.5 1023.5 0.0
 
Date/Time
CST
Temp
°C
App
Temp
°C
Dew
Point
Rel
Hum
%
Delta-T
°C
Wind Press
QNH
hPa
Press
MSL
hPa
Rain
since 9 am
mm
Dir
 
Spd
km/h
Gust
km/h
Spd
kts
Gust
kts
29/11:30pm 10.9 9.7 8.1 83 1.4 NNW 4 4 2 2 1024.0 1024.0 0.0
29/11:00pm 11.0 10.1 7.9 81 1.5 ENE 2 4 1 2 1023.7 1023.7 0.0
29/10:30pm 11.7 10.8 7.8 77 1.9 NE 2 4 1 2 1023.9 1023.9 0.0
29/10:00pm 11.7 9.9 8.0 78 1.8 N 7 9 4 5 1024.1 1024.1 0.0
29/09:30pm 11.7 10.1 8.0 78 1.8 NNE 6 7 3 4 1024.1 1024.1 0.0
29/09:00pm 11.3 10.4 7.8 79 1.7 NNE 2 4 1 2 1024.1 1024.1 0.0
29/08:30pm 11.4 10.9 7.9 79 1.7 CALM 0 0 0 0 1024.1 1024.1 0.0
29/08:00pm 11.6 9.9 7.7 77 1.9 ENE 6 6 3 3 1023.5 1023.5 0.0
29/07:30pm 12.2 11.7 7.7 74 2.2 CALM 0 2 0 1 1023.9 1023.9 0.0
29/07:00pm 12.4 11.9 7.7 73 2.3 CALM 0 0 0 0 1023.6 1023.6 0.0
29/06:30pm 12.8 11.8 7.5 70 2.6 SE 2 4 1 2 1023.3 1023.2 0.0
29/06:00pm 13.2 11.9 7.6 69 2.8 SE 4 4 2 2 1023.5 1023.5 0.0
29/05:30pm 13.8 13.2 7.3 65 3.2 CALM 0 0 0 0 1023.4 1023.4 0.0
29/05:00pm 14.2 12.5 7.5 64 3.4 SSE 6 6 3 3 1023.2 1023.1 0.0
29/04:30pm 14.5 12.7 7.3 62 3.6 SE 6 6 3 3 1023.2 1023.1 0.0
29/04:00pm 14.7 12.9 7.3 61 3.7 SE 6 9 3 5 1022.9 1022.8 0.0
29/03:30pm 14.8 12.9 7.4 61 3.7 SE 7 11 4 6 1022.8 1022.7 0.0
29/03:00pm 15.1 13.7 7.2 59 3.9 S 4 6 2 3 1023.1 1023.0 0.0
29/02:30pm 15.1 13.4 7.6 61 3.8 ESE 6 7 3 4 1023.1 1023.0 0.0
29/02:00pm 15.1 13.7 7.4 60 3.9 SE 4 13 2 7 1023.2 1023.1 0.0
29/01:30pm 14.8 12.9 7.6 62 3.6 SSE 7 15 4 8 1023.3 1023.2 0.0
29/01:00pm 15.2 13.1 8.2 63 3.6 ESE 9 15 5 8 1023.3 1023.2 0.0
29/12:30pm 15.0 13.0 8.5 65 3.3 ESE 9 15 5 8 1023.8 1023.8 0.0
29/12:00pm 14.2 11.7 8.4 68 2.9 SE 11 15 6 8 1024.1 1024.1 0.0
29/11:30am 14.0 11.9 8.4 69 2.8 SE 9 17 5 9 1024.3 1024.3 0.0
29/11:00am 13.8 11.3 8.4 70 2.7 SE 11 15 6 8 1024.7 1024.7 0.0
29/10:30am 13.3 11.3 8.6 73 2.4 SE 9 13 5 7 1024.6 1024.6 0.0
29/10:00am 13.1 10.9 9.2 77 2.0 ESE 11 15 6 8 1024.7 1024.7 0.0
29/09:30am 12.4 10.6 9.6 83 1.4 ESE 9 13 5 7 1024.7 1024.7 0.0
29/09:00am 11.3 10.5 9.7 90 0.8 S 4 6 2 3 1024.7 1024.7 0.0
29/08:30am 10.1 9.9 8.9 92 0.6 CALM 0 0 0 0 1024.5 1024.5 0.0
29/08:00am 9.1 8.6 7.9 92 0.6 CALM 0 0 0 0 1024.0 1024.0 0.0
29/07:30am 8.9 8.4 7.7 92 0.6 CALM 0 0 0 0 1023.8 1023.8 0.0
29/07:00am 9.5 9.1 8.1 91 0.7 CALM 0 0 0 0 1023.4 1023.4 0.0
29/06:30am 9.9 9.6 8.7 92 0.6 CALM 0 0 0 0 1023.3 1023.2 0.0
29/06:00am 10.0 9.0 8.8 92 0.6 SSW 4 6 2 3 1023.1 1023.0 0.0
29/05:30am 10.1 9.8 8.7 91 0.7 CALM 0 0 0 0 1022.8 1022.7 0.0
29/05:00am 10.2 9.9 8.8 91 0.7 CALM 0 2 0 1 1022.5 1022.4 0.0
29/04:30am 10.4 9.8 9.0 91 0.7 SW 2 6 1 3 1022.3 1022.3 0.0
29/04:00am 10.4 10.2 9.0 91 0.7 CALM 0 0 0 0 1022.1 1022.1 0.0
29/03:30am 10.4 10.2 9.0 91 0.7 CALM 0 0 0 0 1021.9 1021.9 0.0
29/03:00am 10.3 9.6 8.7 90 0.8 S 2 6 1 3 1022.0 1022.0 0.0
29/02:30am 10.4 10.1 8.8 90 0.8 CALM 0 0 0 0 1021.9 1021.9 0.0
29/02:00am 10.7 10.1 9.0 89 0.9 SSE 2 6 1 3 1021.7 1021.7 0.0
29/01:30am 10.7 10.4 8.8 88 0.9 CALM 0 0 0 0 1021.8 1021.8 0.0
29/01:00am 11.4 11.3 9.5 88 1.0 CALM 0 0 0 0 1021.7 1021.7 0.0
29/12:30am 11.9 11.1 9.8 87 1.1 NW 4 6 2 3 1021.6 1021.6 0.0
29/12:00am 11.9 10.8 9.8 87 1.1 NW 6 6 3 3 1021.6 1021.6 0.0
 
Date/Time
CST
Temp
°C
App
Temp
°C
Dew
Point
Rel
Hum
%
Delta-T
°C
Wind Press
QNH
hPa
Press
MSL
hPa
Rain
since 9 am
mm
Dir
 
Spd
km/h
Gust
km/h
Spd
kts
Gust
kts
28/11:30pm 12.1 11.3 9.8 86 1.2 NNW 4 7 2 4 1021.4 1021.4 0.0
28/11:00pm 12.0 12.0 9.7 86 1.2 CALM 0 0 0 0 1021.7 1021.7 0.0
28/10:30pm 12.7 11.6 10.1 84 1.4 WNW 6 6 3 3 1021.9 1021.9 0.0
28/10:00pm 13.0 13.2 10.4 84 1.4 CALM 0 0 0 0 1021.6 1021.6 0.0
28/09:30pm 13.0 12.0 10.4 84 1.4 NNW 6 9 3 5 1021.4 1021.4 0.0
28/09:00pm 13.0 12.3 10.0 82 1.6 N 4 7 2 4 1021.1 1021.1 0.0
28/08:30pm 14.2 13.3 10.6 79 1.9 NNW 6 7 3 4 1021.1 1021.1 0.0
28/08:00pm 14.5 13.0 10.7 78 2.0 NNW 9 13 5 7 1020.8 1020.8 0.0
28/07:30pm 14.7 12.9 10.7 77 2.1 NW 11 15 6 8 1020.6 1020.6 0.0
28/07:00pm 14.8 13.7 10.6 76 2.2 NW 7 11 4 6 1020.4 1020.3 0.0
28/06:30pm 15.3 13.5 10.7 74 2.5 NW 11 15 6 8 1020.1 1020.0 0.0
28/06:00pm 15.4 13.9 10.4 72 2.7 NW 9 11 5 6 1019.9 1019.8 0.0
28/05:30pm 15.8 14.6 10.3 70 2.9 NW 7 11 4 6 1019.4 1019.3 0.0
28/05:00pm 16.2 14.2 10.3 68 3.2 WNW 11 13 6 7 1019.3 1019.2 0.0
28/04:30pm 16.6 15.1 10.5 67 3.3 WNW 9 11 5 6 1019.0 1018.9 0.0
28/04:00pm 17.0 14.7 10.4 65 3.6 NW 13 19 7 10 1018.8 1018.8 0.0
28/03:30pm 17.3 14.5 10.0 62 3.9 NW 15 19 8 10 1018.7 1018.7 0.0
28/03:00pm 17.4 14.9 9.8 61 4.1 WNW 13 17 7 9 1019.1 1019.0 0.0
28/02:30pm 17.7 15.1 9.3 58 4.4 WNW 13 17 7 9 1018.8 1018.8 0.0
28/02:00pm 18.0 15.5 9.6 58 4.5 NW 13 19 7 10 1018.8 1018.8 0.0
28/01:30pm 17.6 15.4 9.5 59 4.3 NW 11 13 6 7 1019.1 1019.0 0.0
28/01:00pm 17.3 14.7 9.5 60 4.1 NW 13 17 7 9 1019.3 1019.2 0.0
28/12:30pm 17.3 15.1 9.2 59 4.3 NW 11 17 6 9 1019.6 1019.5 0.0
28/12:00pm 17.5 15.3 9.4 59 4.3 NW 11 13 6 7 1020.0 1019.9 0.0
28/11:30am 17.7 15.7 8.8 56 4.7 WNW 9 11 5 6 1020.0 1019.9 0.0
28/11:00am 17.9 15.5 8.7 55 4.8 WNW 11 19 6 10 1020.6 1020.6 0.0
28/10:30am 17.8 16.3 9.2 57 4.5 NW 7 11 4 6 1020.6 1020.6 0.0
28/10:00am 17.4 16.1 9.3 59 4.3 NW 6 7 3 4 1020.4 1020.3 0.0
28/09:30am 16.1 15.2 11.5 74 2.5 N 7 9 4 5 1020.4 1020.3 0.0
28/09:00am 15.7 14.0 11.1 74 2.5 NNW 11 13 6 7 1020.2 1020.1 0.0
28/08:30am 15.0 13.4 11.4 79 2.0 NNW 11 15 6 8 1020.1 1020.0 0.0
28/08:00am 14.4 12.4 11.4 82 1.6 NNW 13 17 7 9 1019.9 1019.8 0.0
28/07:30am 14.2 11.8 11.4 83 1.5 N 15 20 8 11 1019.6 1019.5 0.0
28/07:00am 14.1 12.4 11.3 83 1.5 N 11 13 6 7 1019.5 1019.4 0.0
28/06:30am 14.1 12.0 11.3 83 1.5 N 13 15 7 8 1019.5 1019.4 0.0
28/06:00am 14.4 12.0 11.4 82 1.6 N 15 19 8 10 1019.3 1019.2 0.0
28/05:30am 14.7 12.3 11.5 81 1.7 NNW 15 19 8 10 1018.8 1018.8 0.0
28/05:00am 14.4 11.9 11.2 81 1.7 NNW 15 17 8 9 1018.5 1018.5 0.0
28/04:30am 14.3 11.9 11.3 82 1.6 NNW 15 17 8 9 1018.4 1018.4 0.0
28/04:00am 14.5 12.1 11.5 82 1.6 NNW 15 17 8 9 1018.3 1018.3 0.0
28/03:30am 14.1 12.1 11.4 84 1.5 NNW 13 15 7 8 1018.2 1018.2 0.0
28/03:00am 13.0 12.0 11.1 88 1.0 N 7 13 4 7 1018.2 1018.2 0.0
28/02:30am 13.6 12.8 11.1 85 1.3 NNW 6 7 3 4 1018.6 1018.6 0.0
28/02:00am 13.6 12.6 11.0 84 1.4 N 7 11 4 6 1019.0 1018.9 0.0
28/01:30am 14.4 13.1 11.4 82 1.6 NNW 9 13 5 7 1019.0 1018.9 0.0
28/01:00am 14.3 12.1 10.9 80 1.8 N 13 17 7 9 1019.2 1019.1 0.0
28/12:30am 14.8 11.8 10.8 77 2.1 NNW 17 22 9 12 1019.5 1019.4 0.0
28/12:00am 14.2 12.2 10.2 77 2.1 NNW 11 13 6 7 1019.6 1019.5 0.0
 
Date/Time
CST
Temp
°C
App
Temp
°C
Dew
Point
Rel
Hum
%
Delta-T
°C
Wind Press
QNH
hPa
Press
MSL
hPa
Rain
since 9 am
mm
Dir
 
Spd
km/h
Gust
km/h
Spd
kts
Gust
kts
27/11:30pm 13.6 11.6 10.0 79 1.9 NNW 11 13 6 7 1019.9 1019.8 0.0
27/11:00pm 12.9 10.3 9.4 79 1.8 NNW 13 15 7 8 1019.8 1019.7 0.0
27/10:30pm 13.1 10.5 9.4 78 1.9 N 13 15 7 8 1019.8 1019.7 0.0
27/10:00pm 13.2 10.2 9.1 76 2.1 N 15 17 8 9 1020.3 1020.2 0.0
27/09:30pm 13.9 10.9 9.1 73 2.5 N 15 17 8 9 1020.2 1020.1 0.0
27/09:00pm 13.5 11.2 9.0 74 2.3 N 11 13 6 7 1020.0 1019.9 0.0
27/08:30pm 13.5 11.6 9.0 74 2.3 N 9 13 5 7 1020.1 1020.0 0.0
27/08:00pm 14.5 12.2 9.1 70 2.8 N 11 13 6 7 1020.0 1019.9 0.0
27/07:30pm 15.3 13.4 9.2 67 3.2 N 9 11 5 6 1020.1 1020.0 0.0
27/07:00pm 15.6 14.8 9.5 67 3.2 NNW 4 4 2 2 1020.1 1020.0 0.0
27/06:30pm 17.1 15.7 9.0 59 4.2 W 6 7 3 4 1019.5 1019.4 0.0
27/06:00pm 16.8 16.5 8.5 58 4.3 CALM 0 0 0 0 1019.2 1019.1 0.0
27/05:30pm 17.5 16.4 8.4 55 4.7 NW 4 6 2 3 1019.0 1018.9 0.0
27/05:00pm 19.0 17.9 8.6 51 5.5 NNW 4 6 2 3 1018.8 1018.8 0.0
27/04:30pm 19.8 18.2 8.2 47 6.1 NW 6 7 3 4 1019.0 1018.9 0.0
27/04:00pm 20.4 18.1 7.4 43 6.8 WNW 9 13 5 7 1019.0 1018.9 0.0
27/03:30pm 21.5 18.2 6.6 38 7.7 NW 13 19 7 10 1019.0 1018.9 0.0
27/03:00pm 22.0 19.1 6.7 37 7.9 NW 11 20 6 11 1019.0 1018.9 0.0
27/02:30pm 21.6 18.3 6.3 37 7.8 WNW 13 20 7 11 1019.1 1019.0 0.0
27/02:00pm 20.6 16.9 6.2 39 7.3 WNW 15 20 8 11 1019.5 1019.4 0.0

Other Formats:

Comma delimited format used in spreadsheet applications
http://www.bom.gov.au/fwo/IDS60801/IDS60801.94684.axf

JavaScript Object Notation format (JSON) in row-major order
http://www.bom.gov.au/fwo/IDS60801/IDS60801.94684.json